sensor_id;sensor_type;location;lat;lon;timestamp;P1;durP1;ratioP1;P2;durP2;ratioP2
4744;SDS011;2386;42.138;24.746;2022-10-16T00:01:30;10.17;;;6.73;;
4744;SDS011;2386;42.138;24.746;2022-10-16T00:03:57;14.07;;;7.17;;
4744;SDS011;2386;42.138;24.746;2022-10-16T00:06:23;15.83;;;7.47;;
4744;SDS011;2386;42.138;24.746;2022-10-16T00:08:50;11.20;;;7.33;;
4744;SDS011;2386;42.138;24.746;2022-10-16T00:13:47;10.10;;;7.67;;
4744;SDS011;2386;42.138;24.746;2022-10-16T00:16:15;10.67;;;7.70;;
4744;SDS011;2386;42.138;24.746;2022-10-16T00:18:41;9.23;;;6.93;;
4744;SDS011;2386;42.138;24.746;2022-10-16T00:21:08;7.97;;;6.90;;
4744;SDS011;2386;42.138;24.746;2022-10-16T00:23:35;14.60;;;7.93;;
4744;SDS011;2386;42.138;24.746;2022-10-16T00:26:03;13.63;;;7.40;;
4744;SDS011;2386;42.138;24.746;2022-10-16T00:28:30;9.17;;;6.80;;
4744;SDS011;2386;42.138;24.746;2022-10-16T00:30:56;19.53;;;7.10;;
4744;SDS011;2386;42.138;24.746;2022-10-16T00:33:22;9.93;;;7.67;;
4744;SDS011;2386;42.138;24.746;2022-10-16T00:35:48;13.53;;;8.20;;
4744;SDS011;2386;42.138;24.746;2022-10-16T00:38:14;17.10;;;8.60;;
4744;SDS011;2386;42.138;24.746;2022-10-16T00:40:40;14.10;;;8.23;;
4744;SDS011;2386;42.138;24.746;2022-10-16T00:43:49;12.57;;;8.20;;
4744;SDS011;2386;42.138;24.746;2022-10-16T00:45:56;10.13;;;8.10;;
4744;SDS011;2386;42.138;24.746;2022-10-16T00:48:22;12.20;;;8.57;;
4744;SDS011;2386;42.138;24.746;2022-10-16T00:50:47;10.57;;;7.83;;
4744;SDS011;2386;42.138;24.746;2022-10-16T00:53:12;12.17;;;7.80;;
4744;SDS011;2386;42.138;24.746;2022-10-16T00:55:39;12.60;;;7.53;;
4744;SDS011;2386;42.138;24.746;2022-10-16T00:58:04;14.10;;;8.10;;
4744;SDS011;2386;42.138;24.746;2022-10-16T01:00:30;9.53;;;7.40;;
4744;SDS011;2386;42.138;24.746;2022-10-16T01:02:57;13.03;;;8.13;;
4744;SDS011;2386;42.138;24.746;2022-10-16T01:08:57;10.70;;;8.17;;
4744;SDS011;2386;42.138;24.746;2022-10-16T01:14:47;15.67;;;8.60;;
4744;SDS011;2386;42.138;24.746;2022-10-16T01:17:23;14.90;;;9.70;;
4744;SDS011;2386;42.138;24.746;2022-10-16T01:22:39;14.53;;;9.47;;
4744;SDS011;2386;42.138;24.746;2022-10-16T01:25:09;22.10;;;9.73;;
4744;SDS011;2386;42.138;24.746;2022-10-16T01:27:41;17.60;;;9.40;;
4744;SDS011;2386;42.138;24.746;2022-10-16T01:30:12;18.20;;;9.73;;
4744;SDS011;2386;42.138;24.746;2022-10-16T01:32:48;14.73;;;9.53;;
4744;SDS011;2386;42.138;24.746;2022-10-16T01:35:18;18.30;;;10.33;;
4744;SDS011;2386;42.138;24.746;2022-10-16T01:37:51;23.80;;;9.80;;
4744;SDS011;2386;42.138;24.746;2022-10-16T01:40:36;20.90;;;9.87;;
4744;SDS011;2386;42.138;24.746;2022-10-16T01:43:20;14.50;;;9.50;;
4744;SDS011;2386;42.138;24.746;2022-10-16T01:45:50;12.70;;;9.87;;
4744;SDS011;2386;42.138;24.746;2022-10-16T01:48:18;19.50;;;10.00;;
4744;SDS011;2386;42.138;24.746;2022-10-16T01:50:49;14.67;;;9.57;;
4744;SDS011;2386;42.138;24.746;2022-10-16T01:53:19;13.07;;;9.27;;
4744;SDS011;2386;42.138;24.746;2022-10-16T01:55:46;17.97;;;9.70;;
4744;SDS011;2386;42.138;24.746;2022-10-16T01:58:14;17.87;;;10.17;;
4744;SDS011;2386;42.138;24.746;2022-10-16T02:00:41;12.80;;;9.20;;
4744;SDS011;2386;42.138;24.746;2022-10-16T02:03:10;16.47;;;9.30;;
4744;SDS011;2386;42.138;24.746;2022-10-16T02:05:41;14.97;;;9.47;;
4744;SDS011;2386;42.138;24.746;2022-10-16T02:08:07;18.57;;;11.23;;
4744;SDS011;2386;42.138;24.746;2022-10-16T02:10:32;13.53;;;8.60;;
4744;SDS011;2386;42.138;24.746;2022-10-16T02:13:06;16.33;;;9.87;;
4744;SDS011;2386;42.138;24.746;2022-10-16T02:15:35;16.53;;;9.50;;
4744;SDS011;2386;42.138;24.746;2022-10-16T02:18:01;14.43;;;9.73;;
4744;SDS011;2386;42.138;24.746;2022-10-16T02:20:32;14.90;;;10.17;;
4744;SDS011;2386;42.138;24.746;2022-10-16T02:23:14;16.03;;;10.00;;
4744;SDS011;2386;42.138;24.746;2022-10-16T02:25:49;12.30;;;9.63;;
4744;SDS011;2386;42.138;24.746;2022-10-16T02:28:17;29.93;;;10.20;;
4744;SDS011;2386;42.138;24.746;2022-10-16T02:33:21;13.70;;;9.77;;
4744;SDS011;2386;42.138;24.746;2022-10-16T02:35:49;19.37;;;11.03;;
4744;SDS011;2386;42.138;24.746;2022-10-16T02:38:16;26.03;;;9.73;;
4744;SDS011;2386;42.138;24.746;2022-10-16T02:40:43;19.50;;;9.57;;
4744;SDS011;2386;42.138;24.746;2022-10-16T02:43:09;13.40;;;8.77;;
4744;SDS011;2386;42.138;24.746;2022-10-16T02:45:35;16.57;;;9.67;;
4744;SDS011;2386;42.138;24.746;2022-10-16T02:48:01;18.57;;;10.40;;
4744;SDS011;2386;42.138;24.746;2022-10-16T02:50:26;28.93;;;9.93;;
4744;SDS011;2386;42.138;24.746;2022-10-16T02:52:52;13.20;;;9.20;;
4744;SDS011;2386;42.138;24.746;2022-10-16T02:55:17;17.80;;;10.17;;
4744;SDS011;2386;42.138;24.746;2022-10-16T02:57:42;16.60;;;10.37;;
4744;SDS011;2386;42.138;24.746;2022-10-16T03:00:08;18.07;;;11.07;;
4744;SDS011;2386;42.138;24.746;2022-10-16T03:02:35;27.40;;;12.03;;
4744;SDS011;2386;42.138;24.746;2022-10-16T03:05:00;19.30;;;11.90;;
4744;SDS011;2386;42.138;24.746;2022-10-16T03:07:26;19.90;;;11.70;;
4744;SDS011;2386;42.138;24.746;2022-10-16T03:09:51;15.27;;;9.77;;
4744;SDS011;2386;42.138;24.746;2022-10-16T03:12:17;13.30;;;10.23;;
4744;SDS011;2386;42.138;24.746;2022-10-16T03:14:42;14.83;;;10.73;;
4744;SDS011;2386;42.138;24.746;2022-10-16T03:17:08;14.40;;;9.73;;
4744;SDS011;2386;42.138;24.746;2022-10-16T03:19:33;15.30;;;10.60;;
4744;SDS011;2386;42.138;24.746;2022-10-16T03:21:59;16.87;;;10.73;;
4744;SDS011;2386;42.138;24.746;2022-10-16T03:24:25;13.67;;;10.13;;
4744;SDS011;2386;42.138;24.746;2022-10-16T03:26:50;13.77;;;10.67;;
4744;SDS011;2386;42.138;24.746;2022-10-16T03:29:15;20.67;;;12.03;;
4744;SDS011;2386;42.138;24.746;2022-10-16T03:31:41;23.43;;;13.17;;
4744;SDS011;2386;42.138;24.746;2022-10-16T03:34:06;22.83;;;12.80;;
4744;SDS011;2386;42.138;24.746;2022-10-16T03:36:33;19.83;;;13.60;;
4744;SDS011;2386;42.138;24.746;2022-10-16T03:38:58;19.40;;;13.30;;
4744;SDS011;2386;42.138;24.746;2022-10-16T03:41:23;25.17;;;13.93;;
4744;SDS011;2386;42.138;24.746;2022-10-16T03:43:49;21.10;;;12.23;;
4744;SDS011;2386;42.138;24.746;2022-10-16T03:46:14;18.00;;;12.80;;
4744;SDS011;2386;42.138;24.746;2022-10-16T03:48:40;24.53;;;13.13;;
4744;SDS011;2386;42.138;24.746;2022-10-16T03:51:05;19.13;;;12.30;;
4744;SDS011;2386;42.138;24.746;2022-10-16T03:53:31;26.30;;;12.93;;
4744;SDS011;2386;42.138;24.746;2022-10-16T03:55:56;20.90;;;13.47;;
4744;SDS011;2386;42.138;24.746;2022-10-16T03:58:23;21.20;;;12.17;;
4744;SDS011;2386;42.138;24.746;2022-10-16T04:00:48;19.13;;;12.93;;
4744;SDS011;2386;42.138;24.746;2022-10-16T04:03:14;16.97;;;12.80;;
4744;SDS011;2386;42.138;24.746;2022-10-16T04:05:39;20.20;;;13.77;;
4744;SDS011;2386;42.138;24.746;2022-10-16T04:08:05;19.77;;;12.80;;
4744;SDS011;2386;42.138;24.746;2022-10-16T04:10:31;22.13;;;13.77;;
4744;SDS011;2386;42.138;24.746;2022-10-16T04:12:56;17.93;;;12.40;;
4744;SDS011;2386;42.138;24.746;2022-10-16T04:15:25;16.83;;;12.33;;
4744;SDS011;2386;42.138;24.746;2022-10-16T04:17:51;13.57;;;10.90;;
4744;SDS011;2386;42.138;24.746;2022-10-16T04:20:17;16.40;;;10.00;;
4744;SDS011;2386;42.138;24.746;2022-10-16T04:22:43;18.30;;;10.70;;
4744;SDS011;2386;42.138;24.746;2022-10-16T04:25:09;15.53;;;10.57;;
4744;SDS011;2386;42.138;24.746;2022-10-16T04:27:36;13.40;;;9.90;;
4744;SDS011;2386;42.138;24.746;2022-10-16T04:30:02;18.13;;;10.30;;
4744;SDS011;2386;42.138;24.746;2022-10-16T04:32:28;19.60;;;10.63;;
4744;SDS011;2386;42.138;24.746;2022-10-16T04:34:53;20.07;;;11.40;;
4744;SDS011;2386;42.138;24.746;2022-10-16T04:37:22;15.77;;;11.13;;
4744;SDS011;2386;42.138;24.746;2022-10-16T04:39:48;18.80;;;11.40;;
4744;SDS011;2386;42.138;24.746;2022-10-16T04:42:14;19.70;;;11.00;;
4744;SDS011;2386;42.138;24.746;2022-10-16T04:44:39;16.07;;;10.57;;
4744;SDS011;2386;42.138;24.746;2022-10-16T04:47:04;18.13;;;10.00;;
4744;SDS011;2386;42.138;24.746;2022-10-16T04:49:30;16.40;;;9.90;;
4744;SDS011;2386;42.138;24.746;2022-10-16T04:51:55;23.33;;;10.40;;
4744;SDS011;2386;42.138;24.746;2022-10-16T04:54:20;17.13;;;10.73;;
4744;SDS011;2386;42.138;24.746;2022-10-16T04:56:46;15.17;;;10.60;;
4744;SDS011;2386;42.138;24.746;2022-10-16T04:59:13;18.13;;;10.93;;
4744;SDS011;2386;42.138;24.746;2022-10-16T05:01:39;19.53;;;11.50;;
4744;SDS011;2386;42.138;24.746;2022-10-16T05:04:05;14.07;;;10.17;;
4744;SDS011;2386;42.138;24.746;2022-10-16T05:06:30;20.93;;;12.23;;
4744;SDS011;2386;42.138;24.746;2022-10-16T05:08:55;21.63;;;11.70;;
4744;SDS011;2386;42.138;24.746;2022-10-16T05:11:21;27.60;;;11.70;;
4744;SDS011;2386;42.138;24.746;2022-10-16T05:13:46;21.93;;;11.27;;
4744;SDS011;2386;42.138;24.746;2022-10-16T05:16:12;20.47;;;11.10;;
4744;SDS011;2386;42.138;24.746;2022-10-16T05:18:37;19.73;;;11.80;;
4744;SDS011;2386;42.138;24.746;2022-10-16T05:21:02;15.70;;;11.53;;
4744;SDS011;2386;42.138;24.746;2022-10-16T05:23:28;21.97;;;13.17;;
4744;SDS011;2386;42.138;24.746;2022-10-16T05:25:54;22.17;;;12.80;;
4744;SDS011;2386;42.138;24.746;2022-10-16T05:28:23;16.20;;;11.27;;
4744;SDS011;2386;42.138;24.746;2022-10-16T05:30:51;23.87;;;13.87;;
4744;SDS011;2386;42.138;24.746;2022-10-16T05:33:16;25.80;;;15.20;;
4744;SDS011;2386;42.138;24.746;2022-10-16T05:35:42;21.93;;;14.00;;
4744;SDS011;2386;42.138;24.746;2022-10-16T05:38:08;22.00;;;11.67;;
4744;SDS011;2386;42.138;24.746;2022-10-16T05:40:34;19.43;;;12.00;;
4744;SDS011;2386;42.138;24.746;2022-10-16T05:43:00;16.77;;;11.90;;
4744;SDS011;2386;42.138;24.746;2022-10-16T05:45:25;18.50;;;11.80;;
4744;SDS011;2386;42.138;24.746;2022-10-16T05:47:51;20.50;;;12.03;;
4744;SDS011;2386;42.138;24.746;2022-10-16T05:50:16;21.30;;;10.77;;
4744;SDS011;2386;42.138;24.746;2022-10-16T05:52:41;17.63;;;10.90;;
4744;SDS011;2386;42.138;24.746;2022-10-16T05:55:07;16.90;;;10.80;;
4744;SDS011;2386;42.138;24.746;2022-10-16T05:57:33;17.27;;;11.37;;
4744;SDS011;2386;42.138;24.746;2022-10-16T05:59:58;10.67;;;9.10;;
4744;SDS011;2386;42.138;24.746;2022-10-16T06:02:23;14.33;;;10.40;;
4744;SDS011;2386;42.138;24.746;2022-10-16T06:04:50;13.27;;;9.63;;
4744;SDS011;2386;42.138;24.746;2022-10-16T06:07:18;13.50;;;8.30;;
4744;SDS011;2386;42.138;24.746;2022-10-16T06:09:43;12.70;;;8.13;;
4744;SDS011;2386;42.138;24.746;2022-10-16T06:12:08;14.20;;;7.67;;
4744;SDS011;2386;42.138;24.746;2022-10-16T06:14:34;10.70;;;8.10;;
4744;SDS011;2386;42.138;24.746;2022-10-16T06:16:59;13.87;;;8.60;;
4744;SDS011;2386;42.138;24.746;2022-10-16T06:19:24;16.80;;;9.00;;
4744;SDS011;2386;42.138;24.746;2022-10-16T06:21:50;11.13;;;8.53;;
4744;SDS011;2386;42.138;24.746;2022-10-16T06:24:15;14.23;;;8.57;;
4744;SDS011;2386;42.138;24.746;2022-10-16T06:26:41;13.70;;;8.73;;
4744;SDS011;2386;42.138;24.746;2022-10-16T06:29:06;15.43;;;8.97;;
4744;SDS011;2386;42.138;24.746;2022-10-16T06:31:31;11.57;;;8.57;;
4744;SDS011;2386;42.138;24.746;2022-10-16T06:33:58;13.23;;;9.10;;
4744;SDS011;2386;42.138;24.746;2022-10-16T06:36:24;10.70;;;9.00;;
4744;SDS011;2386;42.138;24.746;2022-10-16T06:38:50;13.93;;;9.30;;
4744;SDS011;2386;42.138;24.746;2022-10-16T06:41:17;11.40;;;8.40;;
4744;SDS011;2386;42.138;24.746;2022-10-16T06:43:45;14.60;;;9.00;;
4744;SDS011;2386;42.138;24.746;2022-10-16T06:46:13;17.30;;;9.60;;
4744;SDS011;2386;42.138;24.746;2022-10-16T06:48:40;13.57;;;9.20;;
4744;SDS011;2386;42.138;24.746;2022-10-16T06:51:06;19.23;;;8.37;;
4744;SDS011;2386;42.138;24.746;2022-10-16T06:53:35;11.60;;;8.70;;
4744;SDS011;2386;42.138;24.746;2022-10-16T06:56:08;14.87;;;9.87;;
4744;SDS011;2386;42.138;24.746;2022-10-16T06:58:35;14.10;;;8.80;;
4744;SDS011;2386;42.138;24.746;2022-10-16T07:01:00;19.33;;;9.20;;
4744;SDS011;2386;42.138;24.746;2022-10-16T07:03:26;13.57;;;9.57;;
4744;SDS011;2386;42.138;24.746;2022-10-16T07:05:51;16.00;;;10.33;;
4744;SDS011;2386;42.138;24.746;2022-10-16T07:08:17;13.10;;;9.13;;
4744;SDS011;2386;42.138;24.746;2022-10-16T07:10:42;14.80;;;9.10;;
4744;SDS011;2386;42.138;24.746;2022-10-16T07:13:07;17.83;;;10.37;;
4744;SDS011;2386;42.138;24.746;2022-10-16T07:15:33;19.80;;;9.70;;
4744;SDS011;2386;42.138;24.746;2022-10-16T07:17:59;18.00;;;10.33;;
4744;SDS011;2386;42.138;24.746;2022-10-16T07:20:25;13.20;;;9.17;;
4744;SDS011;2386;42.138;24.746;2022-10-16T07:22:50;11.93;;;8.40;;
4744;SDS011;2386;42.138;24.746;2022-10-16T07:25:16;13.20;;;10.10;;
4744;SDS011;2386;42.138;24.746;2022-10-16T07:27:42;18.40;;;10.57;;
4744;SDS011;2386;42.138;24.746;2022-10-16T07:30:07;13.93;;;9.27;;
4744;SDS011;2386;42.138;24.746;2022-10-16T07:32:33;14.40;;;9.40;;
4744;SDS011;2386;42.138;24.746;2022-10-16T07:34:58;11.17;;;9.00;;
4744;SDS011;2386;42.138;24.746;2022-10-16T07:37:24;20.40;;;9.40;;
4744;SDS011;2386;42.138;24.746;2022-10-16T07:39:49;13.20;;;8.87;;
4744;SDS011;2386;42.138;24.746;2022-10-16T07:42:15;14.33;;;9.00;;
4744;SDS011;2386;42.138;24.746;2022-10-16T07:44:40;11.53;;;8.67;;
4744;SDS011;2386;42.138;24.746;2022-10-16T07:47:06;23.27;;;8.33;;
4744;SDS011;2386;42.138;24.746;2022-10-16T07:49:31;13.67;;;8.30;;
4744;SDS011;2386;42.138;24.746;2022-10-16T07:51:57;11.40;;;8.90;;
4744;SDS011;2386;42.138;24.746;2022-10-16T07:54:22;10.83;;;8.50;;
4744;SDS011;2386;42.138;24.746;2022-10-16T07:56:48;13.70;;;9.10;;
4744;SDS011;2386;42.138;24.746;2022-10-16T07:59:13;16.10;;;8.70;;
4744;SDS011;2386;42.138;24.746;2022-10-16T08:01:38;14.00;;;8.70;;
4744;SDS011;2386;42.138;24.746;2022-10-16T08:04:04;10.93;;;8.17;;
4744;SDS011;2386;42.138;24.746;2022-10-16T08:06:34;14.03;;;9.00;;
4744;SDS011;2386;42.138;24.746;2022-10-16T08:09:01;12.20;;;7.80;;
4744;SDS011;2386;42.138;24.746;2022-10-16T08:11:26;14.10;;;9.07;;
4744;SDS011;2386;42.138;24.746;2022-10-16T08:13:52;13.10;;;8.30;;
4744;SDS011;2386;42.138;24.746;2022-10-16T08:16:17;12.00;;;7.93;;
4744;SDS011;2386;42.138;24.746;2022-10-16T08:18:42;13.03;;;8.60;;
4744;SDS011;2386;42.138;24.746;2022-10-16T08:21:13;11.20;;;8.57;;
4744;SDS011;2386;42.138;24.746;2022-10-16T08:23:41;11.53;;;7.97;;
4744;SDS011;2386;42.138;24.746;2022-10-16T08:26:07;11.20;;;8.50;;
4744;SDS011;2386;42.138;24.746;2022-10-16T08:28:33;10.00;;;8.90;;
4744;SDS011;2386;42.138;24.746;2022-10-16T08:31:06;12.20;;;7.77;;
4744;SDS011;2386;42.138;24.746;2022-10-16T08:33:40;10.80;;;7.80;;
4744;SDS011;2386;42.138;24.746;2022-10-16T08:36:07;17.30;;;8.77;;
4744;SDS011;2386;42.138;24.746;2022-10-16T08:38:32;10.50;;;7.60;;
4744;SDS011;2386;42.138;24.746;2022-10-16T08:41:17;10.13;;;7.27;;
4744;SDS011;2386;42.138;24.746;2022-10-16T08:44:03;10.80;;;7.20;;
4744;SDS011;2386;42.138;24.746;2022-10-16T08:49:11;9.77;;;7.87;;
4744;SDS011;2386;42.138;24.746;2022-10-16T08:51:38;11.87;;;8.23;;
4744;SDS011;2386;42.138;24.746;2022-10-16T08:56:34;11.60;;;7.80;;
4744;SDS011;2386;42.138;24.746;2022-10-16T08:58:59;12.23;;;7.73;;
4744;SDS011;2386;42.138;24.746;2022-10-16T09:01:27;12.00;;;8.13;;
4744;SDS011;2386;42.138;24.746;2022-10-16T09:12:20;13.63;;;7.90;;
4744;SDS011;2386;42.138;24.746;2022-10-16T09:23:18;10.47;;;7.07;;
4744;SDS011;2386;42.138;24.746;2022-10-16T09:25:52;9.50;;;6.37;;
4744;SDS011;2386;42.138;24.746;2022-10-16T09:28:19;12.43;;;7.17;;
4744;SDS011;2386;42.138;24.746;2022-10-16T09:30:44;10.70;;;6.90;;
4744;SDS011;2386;42.138;24.746;2022-10-16T09:33:12;11.50;;;6.40;;
4744;SDS011;2386;42.138;24.746;2022-10-16T09:35:39;10.53;;;6.27;;
4744;SDS011;2386;42.138;24.746;2022-10-16T09:38:09;8.43;;;6.67;;
4744;SDS011;2386;42.138;24.746;2022-10-16T09:40:47;10.40;;;6.10;;
4744;SDS011;2386;42.138;24.746;2022-10-16T09:43:22;8.10;;;5.70;;
4744;SDS011;2386;42.138;24.746;2022-10-16T09:45:55;18.67;;;5.60;;
4744;SDS011;2386;42.138;24.746;2022-10-16T09:48:49;11.60;;;6.10;;
4744;SDS011;2386;42.138;24.746;2022-10-16T09:51:21;9.17;;;5.47;;
4744;SDS011;2386;42.138;24.746;2022-10-16T09:53:53;9.90;;;5.90;;
4744;SDS011;2386;42.138;24.746;2022-10-16T09:56:22;8.03;;;6.20;;
4744;SDS011;2386;42.138;24.746;2022-10-16T09:58:51;8.47;;;5.93;;
4744;SDS011;2386;42.138;24.746;2022-10-16T10:01:18;7.07;;;5.90;;
4744;SDS011;2386;42.138;24.746;2022-10-16T10:03:45;7.70;;;6.00;;
4744;SDS011;2386;42.138;24.746;2022-10-16T10:08:53;15.10;;;6.87;;
4744;SDS011;2386;42.138;24.746;2022-10-16T10:11:40;9.40;;;6.00;;
4744;SDS011;2386;42.138;24.746;2022-10-16T10:19:38;7.17;;;5.30;;
4744;SDS011;2386;42.138;24.746;2022-10-16T10:22:17;9.93;;;5.40;;
4744;SDS011;2386;42.138;24.746;2022-10-16T10:35:31;6.10;;;5.50;;
4744;SDS011;2386;42.138;24.746;2022-10-16T10:38:04;13.03;;;5.60;;
4744;SDS011;2386;42.138;24.746;2022-10-16T10:43:28;7.53;;;5.70;;
4744;SDS011;2386;42.138;24.746;2022-10-16T10:46:09;6.97;;;5.27;;
4744;SDS011;2386;42.138;24.746;2022-10-16T10:49:17;10.10;;;6.40;;
4744;SDS011;2386;42.138;24.746;2022-10-16T10:57:02;6.50;;;5.07;;
4744;SDS011;2386;42.138;24.746;2022-10-16T11:07:29;16.50;;;5.57;;
4744;SDS011;2386;42.138;24.746;2022-10-16T11:10:09;6.40;;;5.40;;
4744;SDS011;2386;42.138;24.746;2022-10-16T11:12:42;8.60;;;5.73;;
4744;SDS011;2386;42.138;24.746;2022-10-16T11:15:19;7.97;;;6.17;;
4744;SDS011;2386;42.138;24.746;2022-10-16T11:17:52;13.13;;;6.33;;
4744;SDS011;2386;42.138;24.746;2022-10-16T11:20:32;6.97;;;5.40;;
4744;SDS011;2386;42.138;24.746;2022-10-16T11:23:05;8.33;;;5.40;;
4744;SDS011;2386;42.138;24.746;2022-10-16T11:25:36;5.93;;;5.23;;
4744;SDS011;2386;42.138;24.746;2022-10-16T11:28:09;10.97;;;5.67;;
4744;SDS011;2386;42.138;24.746;2022-10-16T11:33:27;7.50;;;5.50;;
4744;SDS011;2386;42.138;24.746;2022-10-16T11:41:35;8.33;;;4.83;;
4744;SDS011;2386;42.138;24.746;2022-10-16T11:44:16;13.10;;;5.40;;
4744;SDS011;2386;42.138;24.746;2022-10-16T11:46:55;7.90;;;4.57;;
4744;SDS011;2386;42.138;24.746;2022-10-16T11:49:29;11.60;;;6.77;;
4744;SDS011;2386;42.138;24.746;2022-10-16T11:57:23;5.90;;;5.03;;
4744;SDS011;2386;42.138;24.746;2022-10-16T11:59:58;16.23;;;5.63;;
4744;SDS011;2386;42.138;24.746;2022-10-16T12:02:37;6.63;;;4.60;;
4744;SDS011;2386;42.138;24.746;2022-10-16T12:07:40;8.90;;;4.77;;
4744;SDS011;2386;42.138;24.746;2022-10-16T12:10:25;5.83;;;5.17;;
4744;SDS011;2386;42.138;24.746;2022-10-16T12:12:52;11.33;;;5.30;;
4744;SDS011;2386;42.138;24.746;2022-10-16T12:15:28;8.57;;;5.70;;
4744;SDS011;2386;42.138;24.746;2022-10-16T12:17:56;12.33;;;5.20;;
4744;SDS011;2386;42.138;24.746;2022-10-16T12:22:58;7.30;;;5.37;;
4744;SDS011;2386;42.138;24.746;2022-10-16T12:25:33;7.73;;;5.67;;
4744;SDS011;2386;42.138;24.746;2022-10-16T12:28:04;8.97;;;6.00;;
4744;SDS011;2386;42.138;24.746;2022-10-16T12:30:33;10.77;;;5.80;;
4744;SDS011;2386;42.138;24.746;2022-10-16T12:33:01;7.40;;;5.90;;
4744;SDS011;2386;42.138;24.746;2022-10-16T12:35:34;6.63;;;5.60;;
4744;SDS011;2386;42.138;24.746;2022-10-16T12:40:44;7.13;;;5.90;;
4744;SDS011;2386;42.138;24.746;2022-10-16T12:43:58;11.30;;;6.30;;
4744;SDS011;2386;42.138;24.746;2022-10-16T12:48:51;9.57;;;5.97;;
4744;SDS011;2386;42.138;24.746;2022-10-16T12:54:10;6.77;;;5.73;;
4744;SDS011;2386;42.138;24.746;2022-10-16T13:07:45;9.03;;;6.10;;
4744;SDS011;2386;42.138;24.746;2022-10-16T13:13:40;10.03;;;5.80;;
4744;SDS011;2386;42.138;24.746;2022-10-16T13:19:17;11.23;;;6.93;;
4744;SDS011;2386;42.138;24.746;2022-10-16T13:27:23;13.03;;;6.73;;
4744;SDS011;2386;42.138;24.746;2022-10-16T13:30:11;9.23;;;6.40;;
4744;SDS011;2386;42.138;24.746;2022-10-16T13:32:40;8.60;;;6.10;;
4744;SDS011;2386;42.138;24.746;2022-10-16T13:35:24;8.53;;;6.57;;
4744;SDS011;2386;42.138;24.746;2022-10-16T13:38:04;9.07;;;5.77;;
4744;SDS011;2386;42.138;24.746;2022-10-16T13:40:30;7.70;;;5.90;;
4744;SDS011;2386;42.138;24.746;2022-10-16T13:42:55;8.30;;;6.00;;
4744;SDS011;2386;42.138;24.746;2022-10-16T13:45:22;7.90;;;5.73;;
4744;SDS011;2386;42.138;24.746;2022-10-16T13:47:50;7.97;;;6.37;;
4744;SDS011;2386;42.138;24.746;2022-10-16T13:50:26;11.70;;;6.70;;
4744;SDS011;2386;42.138;24.746;2022-10-16T13:52:51;7.13;;;6.13;;
4744;SDS011;2386;42.138;24.746;2022-10-16T13:55:17;8.07;;;5.87;;
4744;SDS011;2386;42.138;24.746;2022-10-16T13:57:43;9.17;;;6.10;;
4744;SDS011;2386;42.138;24.746;2022-10-16T14:00:19;8.70;;;6.30;;
4744;SDS011;2386;42.138;24.746;2022-10-16T14:02:45;8.87;;;6.07;;
4744;SDS011;2386;42.138;24.746;2022-10-16T14:05:17;9.27;;;6.13;;
4744;SDS011;2386;42.138;24.746;2022-10-16T14:07:42;22.10;;;7.37;;
4744;SDS011;2386;42.138;24.746;2022-10-16T14:10:41;11.23;;;6.20;;
4744;SDS011;2386;42.138;24.746;2022-10-16T14:13:04;10.10;;;6.10;;
4744;SDS011;2386;42.138;24.746;2022-10-16T14:15:32;7.83;;;6.20;;
4744;SDS011;2386;42.138;24.746;2022-10-16T14:17:59;8.03;;;5.97;;
4744;SDS011;2386;42.138;24.746;2022-10-16T14:20:26;13.80;;;6.17;;
4744;SDS011;2386;42.138;24.746;2022-10-16T14:23:37;11.80;;;6.40;;
4744;SDS011;2386;42.138;24.746;2022-10-16T14:25:51;11.27;;;6.50;;
4744;SDS011;2386;42.138;24.746;2022-10-16T14:28:21;11.83;;;6.20;;
4744;SDS011;2386;42.138;24.746;2022-10-16T14:35:59;9.30;;;6.60;;
4744;SDS011;2386;42.138;24.746;2022-10-16T14:38:27;12.27;;;6.27;;
4744;SDS011;2386;42.138;24.746;2022-10-16T14:40:54;9.87;;;6.47;;
4744;SDS011;2386;42.138;24.746;2022-10-16T14:43:22;8.43;;;6.17;;
4744;SDS011;2386;42.138;24.746;2022-10-16T14:45:59;7.33;;;5.93;;
4744;SDS011;2386;42.138;24.746;2022-10-16T14:48:27;13.83;;;7.00;;
4744;SDS011;2386;42.138;24.746;2022-10-16T14:50:53;11.90;;;6.50;;
4744;SDS011;2386;42.138;24.746;2022-10-16T14:53:18;10.00;;;6.00;;
4744;SDS011;2386;42.138;24.746;2022-10-16T14:55:44;7.90;;;6.37;;
4744;SDS011;2386;42.138;24.746;2022-10-16T14:58:16;12.77;;;5.70;;
4744;SDS011;2386;42.138;24.746;2022-10-16T15:00:47;8.20;;;6.67;;
4744;SDS011;2386;42.138;24.746;2022-10-16T15:03:12;7.63;;;5.53;;
4744;SDS011;2386;42.138;24.746;2022-10-16T15:05:38;15.40;;;6.30;;
4744;SDS011;2386;42.138;24.746;2022-10-16T15:08:04;10.57;;;5.70;;
4744;SDS011;2386;42.138;24.746;2022-10-16T15:10:29;10.50;;;5.10;;
4744;SDS011;2386;42.138;24.746;2022-10-16T15:12:58;8.57;;;6.33;;
4744;SDS011;2386;42.138;24.746;2022-10-16T15:17:55;8.77;;;6.03;;
4744;SDS011;2386;42.138;24.746;2022-10-16T15:20:25;7.43;;;5.50;;
4744;SDS011;2386;42.138;24.746;2022-10-16T15:22:52;11.00;;;5.90;;
4744;SDS011;2386;42.138;24.746;2022-10-16T15:25:37;8.37;;;5.73;;
4744;SDS011;2386;42.138;24.746;2022-10-16T15:28:06;7.67;;;5.80;;
4744;SDS011;2386;42.138;24.746;2022-10-16T15:30:32;11.00;;;5.80;;
4744;SDS011;2386;42.138;24.746;2022-10-16T15:32:58;9.80;;;6.40;;
4744;SDS011;2386;42.138;24.746;2022-10-16T15:35:24;8.10;;;6.70;;
4744;SDS011;2386;42.138;24.746;2022-10-16T15:37:49;7.47;;;6.20;;
4744;SDS011;2386;42.138;24.746;2022-10-16T15:40:16;12.67;;;7.50;;
4744;SDS011;2386;42.138;24.746;2022-10-16T15:42:42;9.53;;;6.63;;
4744;SDS011;2386;42.138;24.746;2022-10-16T15:45:08;19.17;;;7.20;;
4744;SDS011;2386;42.138;24.746;2022-10-16T15:47:34;9.77;;;6.50;;
4744;SDS011;2386;42.138;24.746;2022-10-16T15:50:00;10.30;;;7.03;;
4744;SDS011;2386;42.138;24.746;2022-10-16T15:52:25;20.73;;;6.77;;
4744;SDS011;2386;42.138;24.746;2022-10-16T15:54:51;8.40;;;5.60;;
4744;SDS011;2386;42.138;24.746;2022-10-16T15:57:16;7.87;;;6.13;;
4744;SDS011;2386;42.138;24.746;2022-10-16T15:59:41;15.17;;;6.60;;
4744;SDS011;2386;42.138;24.746;2022-10-16T16:02:08;11.73;;;5.87;;
4744;SDS011;2386;42.138;24.746;2022-10-16T16:04:34;10.60;;;6.17;;
4744;SDS011;2386;42.138;24.746;2022-10-16T16:06:59;10.87;;;6.80;;
4744;SDS011;2386;42.138;24.746;2022-10-16T16:09:26;8.90;;;6.70;;
4744;SDS011;2386;42.138;24.746;2022-10-16T16:11:53;8.50;;;6.17;;
4744;SDS011;2386;42.138;24.746;2022-10-16T16:14:18;10.27;;;6.10;;
4744;SDS011;2386;42.138;24.746;2022-10-16T16:16:44;10.50;;;7.00;;
4744;SDS011;2386;42.138;24.746;2022-10-16T16:19:09;19.47;;;7.00;;
4744;SDS011;2386;42.138;24.746;2022-10-16T16:21:35;10.50;;;7.30;;
4744;SDS011;2386;42.138;24.746;2022-10-16T16:24:00;13.37;;;7.90;;
4744;SDS011;2386;42.138;24.746;2022-10-16T16:26:26;30.30;;;8.97;;
4744;SDS011;2386;42.138;24.746;2022-10-16T16:28:57;14.33;;;9.27;;
4744;SDS011;2386;42.138;24.746;2022-10-16T16:31:23;19.00;;;8.67;;
4744;SDS011;2386;42.138;24.746;2022-10-16T16:33:50;11.37;;;8.10;;
4744;SDS011;2386;42.138;24.746;2022-10-16T16:36:16;13.93;;;8.20;;
4744;SDS011;2386;42.138;24.746;2022-10-16T16:38:45;16.10;;;8.97;;
4744;SDS011;2386;42.138;24.746;2022-10-16T16:41:15;22.10;;;9.40;;
4744;SDS011;2386;42.138;24.746;2022-10-16T16:43:52;15.63;;;8.93;;
4744;SDS011;2386;42.138;24.746;2022-10-16T16:46:20;17.47;;;9.10;;
4744;SDS011;2386;42.138;24.746;2022-10-16T16:48:46;14.83;;;9.17;;
4744;SDS011;2386;42.138;24.746;2022-10-16T16:51:13;18.07;;;8.93;;
4744;SDS011;2386;42.138;24.746;2022-10-16T16:53:44;14.63;;;9.53;;
4744;SDS011;2386;42.138;24.746;2022-10-16T16:56:10;28.67;;;9.60;;
4744;SDS011;2386;42.138;24.746;2022-10-16T16:58:36;19.17;;;10.17;;
4744;SDS011;2386;42.138;24.746;2022-10-16T17:01:02;14.97;;;10.13;;
4744;SDS011;2386;42.138;24.746;2022-10-16T17:03:28;15.43;;;9.13;;
4744;SDS011;2386;42.138;24.746;2022-10-16T17:08:31;19.53;;;8.50;;